St. Moritz, Switzerland
Current Conditions -  °F | °C
As of 5:50 PM on Sunday 25 Jan 2015 (Local Time) from LSZS Reporting Station
Few Clouds Few Clouds  
Wind Chill:   Ceiling: Unl
Heat Index: 14°   Visibility: 6mi
Dew Point:   Wind: 10mph
Humidity: 67%   Direction: 50°NE
Pressure: 30.09"   Gusts: NA
Location:  46.5°N, 9.84°E
Report Text: LSZS 251650Z 05009KT 9999 FEW030 M10/M15 Q1019
Loading
Personal Weather Stations






























Interactive Weather Map New forecast layout! Learn more

10-Day Weather Forecast

Advertisements
Track Severe Weather on mobile